Time;durP1;ratioP1;P1;durP2;ratioP2;P2;SDS_P1;SDS_P2;PMS_P1;PMS_P2;Temp;Humidity;BMP_temperature;BMP_pressure;BME280_temperature;BME280_humidity;BME280_pressure;Samples;Min_cycle;Max_cycle;Signal;HPM_P1;HPM_P2
2021/08/24 00:01:46;;;;;;;7.37;5.30;;;;;;;25.96;46.43;101685.88;1662015;85;21060;-50
2021/08/24 00:04:12;;;;;;;10.50;6.70;;;;;;;25.96;46.06;101685.88;1666192;85;21573;-48
2021/08/24 00:06:41;;;;;;;8.78;5.47;;;;;;;25.97;45.80;101683.55;1665543;85;21060;-51
2021/08/24 00:09:07;;;;;;;10.50;5.78;;;;;;;25.96;45.69;101687.20;1666801;85;21142;-49
2021/08/24 00:11:34;;;;;;;9.98;5.60;;;;;;;25.95;45.52;101682.81;1663060;85;21009;-48
2021/08/24 00:14:06;;;;;;;8.25;5.90;;;;;;;25.94;45.30;101679.79;1663136;85;21070;-48
2021/08/24 00:16:33;;;;;;;10.08;6.12;;;;;;;25.92;44.97;101689.25;1663182;85;21032;-48
2021/08/24 00:19:00;;;;;;;10.38;6.50;;;;;;;25.91;44.69;101686.66;1663223;85;21072;-48
2021/08/24 00:21:27;;;;;;;20.37;6.42;;;;;;;25.89;44.62;101676.59;1665864;85;21095;-48
2021/08/24 00:23:56;;;;;;;17.07;6.80;;;;;;;25.86;44.71;101688.34;1665903;85;21069;-48
2021/08/24 00:26:22;;;;;;;13.55;6.35;;;;;;;25.82;44.87;101681.02;1665460;85;21381;-50
2021/08/24 00:28:50;;;;;;;13.03;5.97;;;;;;;25.81;44.82;101686.00;1663265;85;21056;-47
2021/08/24 00:31:18;;;;;;;11.93;6.30;;;;;;;25.77;44.45;101681.84;1662524;85;21068;-49
2021/08/24 00:33:45;;;;;;;12.07;5.87;;;;;;;25.74;44.61;101682.05;1666788;85;21068;-46
2021/08/24 00:36:16;;;;;;;11.43;6.30;;;;;;;25.73;44.64;101684.36;1662987;85;21064;-47
2021/08/24 00:38:43;;;;;;;15.43;6.20;;;;;;;25.71;44.82;101680.08;1667190;85;21080;-49
2021/08/24 00:41:10;;;;;;;11.22;6.83;;;;;;;25.69;45.09;101682.87;1663554;85;21517;-46
2021/08/24 00:43:39;;;;;;;10.10;5.60;;;;;;;25.63;45.76;101673.97;1663237;85;21103;-48
2021/08/24 00:46:32;;;;;;;15.45;6.25;;;;;;;25.63;45.67;101682.44;1664153;85;21078;-50
2021/08/24 00:49:04;;;;;;;10.23;6.30;;;;;;;25.63;45.67;101682.44;1663346;85;21060;-48
2021/08/24 00:51:34;;;;;;;9.30;6.22;;;;;;;25.61;45.98;101677.22;1664474;85;21064;-48
2021/08/24 00:54:04;;;;;;;10.65;5.58;;;;;;;25.57;46.18;101672.20;1663358;85;21036;-45
2021/08/24 00:56:33;;;;;;;7.90;5.95;;;;;;;25.55;46.78;101670.98;1663066;85;21080;-49
2021/08/24 00:58:59;;;;;;;11.33;6.12;;;;;;;25.55;46.78;101670.98;1663346;85;21055;-48
2021/08/24 01:01:26;;;;;;;8.50;5.70;;;;;;;25.55;46.50;101677.65;1661584;85;20996;-50
2021/08/24 01:03:54;;;;;;;13.70;6.67;;;;;;;25.55;46.59;101674.98;1664332;85;21020;-48
2021/08/24 01:06:33;;;;;;;8.98;5.62;;;;;;;25.56;46.85;101671.34;1663205;85;21009;-46
2021/08/24 01:09:37;;;;;;;8.38;5.53;;;;;;;25.55;47.58;101658.99;1665869;85;21065;-46
2021/08/24 01:12:40;;;;;;;9.88;6.12;;;;;;;25.55;47.58;101658.99;1668523;85;21068;-50
2021/08/24 01:15:37;;;;;;;14.05;5.72;;;;;;;25.54;47.53;101659.94;1666801;85;21143;-49
2021/08/24 01:18:14;;;;;;;8.65;5.65;;;;;;;25.52;47.67;101659.19;1654063;85;21023;-47
2021/08/24 01:21:07;;;;;;;8.45;5.58;;;;;;;25.50;47.94;101661.11;1660016;85;21576;-47
2021/08/24 01:23:56;;;;;;;7.87;5.65;;;;;;;25.49;48.27;101658.56;1662696;85;21076;-48
2021/08/24 01:26:40;;;;;;;7.58;5.75;;;;;;;25.44;49.68;101656.21;1656340;85;21123;-50
2021/08/24 01:29:18;;;;;;;6.20;4.87;;;;;;;25.44;49.68;101656.21;1666891;85;21075;-47
2021/08/24 01:31:55;;;;;;;7.97;5.42;;;;;;;25.48;52.37;101657.70;1664896;85;21028;-47
2021/08/24 01:34:43;;;;;;;8.30;4.90;;;;;;;25.48;52.37;101657.70;1669646;85;21099;-52
2021/08/24 01:37:31;;;;;;;11.35;4.87;;;;;;;25.51;53.10;101666.80;1664489;85;21048;-50
2021/08/24 01:40:03;;;;;;;9.58;5.22;;;;;;;25.57;53.50;101661.07;1663197;85;21024;-48
2021/08/24 01:42:31;;;;;;;11.08;5.08;;;;;;;25.63;53.68;101664.64;1647798;86;21129;-47
2021/08/24 01:45:12;;;;;;;8.18;5.53;;;;;;;25.70;54.00;101662.37;1681878;83;21497;-50
2021/08/24 01:48:00;;;;;;;6.65;4.90;;;;;;;25.74;54.22;101664.72;1660156;85;21018;-49
2021/08/24 01:50:43;;;;;;;5.80;4.80;;;;;;;25.83;54.10;101671.22;1651510;84;21551;-49
2021/08/24 01:53:35;;;;;;;7.12;4.87;;;;;;;25.90;54.12;101666.30;1645867;85;21030;-47
2021/08/24 01:56:10;;;;;;;5.97;4.25;;;;;;;25.96;54.03;101657.87;1661603;84;21047;-48
2021/08/24 01:58:47;;;;;;;6.03;4.87;;;;;;;26.01;53.44;101661.08;1650422;86;21034;-46
2021/08/24 02:01:18;;;;;;;4.97;4.42;;;;;;;26.06;53.21;101661.58;1581019;89;21181;-49
2021/08/24 02:03:49;;;;;;;4.50;4.03;;;;;;;26.09;53.07;101657.41;1569399;89;21550;-47
2021/08/24 02:06:38;;;;;;;5.72;3.87;;;;;;;26.12;52.96;101653.16;1522488;93;21575;-46
2021/08/24 02:09:28;;;;;;;5.70;4.10;;;;;;;26.16;52.47;101659.98;1571958;90;21054;-46
2021/08/24 02:11:55;;;;;;;6.10;3.87;;;;;;;26.19;52.07;101654.44;1576433;90;21084;-46
2021/08/24 02:14:21;;;;;;;5.15;4.28;;;;;;;26.20;51.54;101649.45;1576980;90;21100;-46
2021/08/24 02:16:49;;;;;;;7.28;4.15;;;;;;;26.25;51.66;101644.65;1551241;91;21136;-49
2021/08/24 02:19:23;;;;;;;7.67;4.00;;;;;;;26.32;51.35;101647.22;1567313;91;21068;-46
2021/08/24 02:22:05;;;;;;;6.85;3.67;;;;;;;26.32;51.35;101647.22;1567332;89;21326;-46
2021/08/24 02:24:43;;;;;;;5.10;3.70;;;;;;;26.35;51.54;101639.86;1527820;92;21150;-49
2021/08/24 02:27:17;;;;;;;5.00;3.62;;;;;;;26.35;51.54;101639.86;1461993;97;21649;-48
2021/08/24 02:29:43;;;;;;;7.25;3.98;;;;;;;26.39;50.83;101649.82;1458694;97;21664;-48
2021/08/24 02:32:25;;;;;;;6.15;3.30;;;;;;;26.39;50.66;101643.15;1453863;98;21176;-49
2021/08/24 02:35:03;;;;;;;5.47;3.37;;;;;;;26.43;50.57;101644.63;1462118;96;21149;-51
2021/08/24 02:37:57;;;;;;;12.75;3.75;;;;;;;26.43;50.27;101640.15;1403247;100;21209;-46
2021/08/24 02:40:44;;;;;;;5.47;3.77;;;;;;;26.45;50.35;101645.37;1408712;100;21220;-49
2021/08/24 02:43:35;;;;;;;5.70;3.77;;;;;;;26.45;50.16;101642.70;1411777;100;21193;-48
2021/08/24 02:46:21;;;;;;;6.65;3.92;;;;;;;26.45;49.99;101637.36;1418770;100;21632;-46
2021/08/24 02:48:52;;;;;;;4.37;3.60;;;;;;;26.45;49.97;101637.36;1393062;101;21199;-49
2021/08/24 02:51:20;;;;;;;4.67;3.70;;;;;;;26.44;49.85;101641.01;1415301;100;21155;-46
2021/08/24 02:54:07;;;;;;;5.10;3.55;;;;;;;26.37;49.91;101631.73;1414192;100;21626;-50
2021/08/24 02:56:33;;;;;;;4.72;3.55;;;;;;;26.39;49.72;101637.81;1392605;101;21658;-48
2021/08/24 02:59:00;;;;;;;5.10;3.50;;;;;;;26.39;49.95;101632.00;1417513;99;21169;-50
2021/08/24 03:01:27;;;;;;;7.53;3.75;;;;;;;26.40;49.87;101632.83;1400287;99;21164;-46
2021/08/24 03:03:54;;;;;;;5.40;3.85;;;;;;;26.39;49.70;101625.33;1461105;95;21100;-50
2021/08/24 03:06:21;;;;;;;7.95;4.20;;;;;;;26.40;49.73;101627.02;1501096;94;21124;-50
2021/08/24 03:08:47;;;;;;;10.90;4.30;;;;;;;26.42;49.87;101624.26;1493597;95;21060;-50
2021/08/24 03:11:18;;;;;;;6.22;4.05;;;;;;;26.44;50.04;101628.48;1494979;95;21080;-48
2021/08/24 03:13:58;;;;;;;7.97;4.22;;;;;;;26.46;49.96;101626.56;1491895;93;21103;-49
2021/08/24 03:16:43;;;;;;;9.48;3.85;;;;;;;26.49;49.84;101629.48;1536998;92;21111;-46
2021/08/24 03:19:20;;;;;;;8.43;3.95;;;;;;;26.51;49.84;101624.89;1547474;92;21568;-48
2021/08/24 03:21:48;;;;;;;9.20;3.92;;;;;;;26.52;49.64;101621.27;1444521;99;21211;-49
2021/08/24 03:24:17;;;;;;;8.65;4.30;;;;;;;26.53;49.44;101621.62;1494365;93;21800;-49
2021/08/24 03:26:45;;;;;;;5.92;3.95;;;;;;;26.53;49.37;101622.95;1526400;93;21131;-48
2021/08/24 03:29:16;;;;;;;5.97;3.83;;;;;;;26.52;49.18;101622.61;1514863;93;21143;-48
2021/08/24 03:31:44;;;;;;;8.05;3.80;;;;;;;26.52;49.19;101625.27;1514645;94;21575;-48
2021/08/24 03:34:10;;;;;;;7.90;3.83;;;;;;;26.52;49.34;101625.27;1588344;88;21060;-48
2021/08/24 03:36:37;;;;;;;6.58;3.95;;;;;;;26.51;49.34;101624.89;1604226;88;21580;-47
2021/08/24 03:39:04;;;;;;;4.85;3.72;;;;;;;26.51;49.34;101624.89;1607921;88;21033;-48
2021/08/24 03:41:32;;;;;;;6.42;3.87;;;;;;;26.52;49.28;101627.44;1605428;88;21553;-49
2021/08/24 03:44:01;;;;;;;6.83;3.95;;;;;;;26.53;49.09;101637.64;1595562;88;21546;-49
2021/08/24 03:46:29;;;;;;;5.62;3.98;;;;;;;26.55;48.93;101630.37;1639419;86;21041;-48
2021/08/24 03:48:57;;;;;;;4.47;3.90;;;;;;;26.58;48.76;101636.32;1641246;86;21060;-49
2021/08/24 03:51:25;;;;;;;10.93;4.65;;;;;;;26.60;48.80;101636.23;1651132;86;21056;-48
2021/08/24 03:53:53;;;;;;;5.42;4.08;;;;;;;26.61;48.87;101633.91;1647775;86;21063;-48
2021/08/24 03:56:19;;;;;;;5.30;4.00;;;;;;;26.64;48.96;101635.03;1651692;86;21615;-45
2021/08/24 03:58:46;;;;;;;6.22;4.05;;;;;;;26.67;48.99;101632.11;1646894;85;21525;-50
2021/08/24 04:01:15;;;;;;;8.48;4.60;;;;;;;26.70;48.73;101633.71;1603062;88;21104;-49
2021/08/24 04:03:41;;;;;;;9.23;4.37;;;;;;;26.70;49.07;101637.24;1647801;86;21037;-46
2021/08/24 04:06:08;;;;;;;10.80;5.03;;;;;;;26.73;49.25;101634.36;1645229;86;21024;-48
2021/08/24 04:08:37;;;;;;;31.82;7.20;;;;;;;26.73;49.33;101630.35;1638338;86;21137;-47
2021/08/24 04:11:05;;;;;;;13.90;4.72;;;;;;;26.76;49.24;101630.61;1641050;86;21061;-50
2021/08/24 04:13:33;;;;;;;13.58;4.08;;;;;;;26.77;49.38;101625.14;1644885;86;21108;-48
2021/08/24 04:16:10;;;;;;;13.40;5.03;;;;;;;26.81;49.58;101620.45;1648686;86;21050;-47
2021/08/24 04:18:38;;;;;;;9.18;4.37;;;;;;;26.83;49.61;101622.01;1702492;82;21625;-48
2021/08/24 04:21:15;;;;;;;14.40;4.67;;;;;;;26.89;49.50;101618.91;1722986;82;21050;-50
2021/08/24 04:23:45;;;;;;;19.00;5.35;;;;;;;26.92;49.30;101624.00;1721323;82;20994;-49
2021/08/24 04:26:12;;;;;;;8.68;4.70;;;;;;;26.96;49.46;101628.13;1720679;82;21148;-47
2021/08/24 04:28:39;;;;;;;5.30;4.00;;;;;;;26.99;49.52;101631.92;1731777;82;21026;-47
2021/08/24 04:31:08;;;;;;;9.03;4.83;;;;;;;27.01;49.40;101628.65;1695955;83;21561;-51
2021/08/24 04:33:35;;;;;;;6.65;4.65;;;;;;;27.05;49.25;101631.45;1686587;83;21495;-47
2021/08/24 04:36:05;;;;;;;6.87;4.20;;;;;;;27.08;49.34;101630.37;1687967;83;21047;-47
2021/08/24 04:38:34;;;;;;;6.58;4.95;;;;;;;27.11;49.39;101634.98;1687628;83;21553;-50
2021/08/24 04:41:01;;;;;;;4.85;3.80;;;;;;;27.12;49.47;101636.67;1577924;89;21635;-52
2021/08/24 04:43:28;;;;;;;8.45;4.50;;;;;;;27.15;49.47;101639.12;1583365;89;21654;-49
2021/08/24 04:45:55;;;;;;;8.93;5.15;;;;;;;27.17;49.57;101641.19;1578020;89;21050;-49
2021/08/24 04:48:22;;;;;;;13.20;6.17;;;;;;;27.19;49.72;101637.05;1585653;88;21106;-48
2021/08/24 04:50:50;;;;;;;7.70;4.40;;;;;;;27.22;49.82;101637.66;1636499;86;21051;-50
2021/08/24 04:53:18;;;;;;;8.23;4.90;;;;;;;27.25;49.83;101635.24;1638414;86;21016;-50
2021/08/24 04:55:45;;;;;;;9.75;4.72;;;;;;;27.27;49.88;101639.50;1644737;86;21031;-48
2021/08/24 04:58:12;;;;;;;11.63;5.40;;;;;;;27.30;50.15;101636.61;1619939;86;21079;-49
2021/08/24 05:00:40;;;;;;;10.45;5.05;;;;;;;27.32;50.06;101633.33;1625915;86;21102;-47
2021/08/24 05:03:07;;;;;;;9.05;5.65;;;;;;;27.34;50.00;101626.08;1635471;86;21039;-48
2021/08/24 05:05:34;;;;;;;16.37;8.98;;;;;;;27.32;50.20;101627.98;1630941;86;21083;-45
2021/08/24 05:08:01;;;;;;;16.65;7.58;;;;;;;27.35;50.16;101630.91;1627856;86;21585;-48
2021/08/24 05:10:28;;;;;;;10.03;5.10;;;;;;;27.36;50.06;101636.16;1620889;86;21038;-48
2021/08/24 05:12:55;;;;;;;9.60;5.53;;;;;;;27.39;50.33;101638.58;1644455;86;21055;-45
2021/08/24 05:15:23;;;;;;;9.38;5.62;;;;;;;27.45;50.29;101629.73;1650907;86;21696;-48
2021/08/24 05:17:50;;;;;;;14.85;8.33;;;;;;;27.46;50.59;101631.42;1665293;85;21066;-46
2021/08/24 05:20:17;;;;;;;42.73;21.95;;;;;;;27.49;50.51;101629.85;1642654;85;21083;-49
2021/08/24 05:22:44;;;;;;;77.67;40.63;;;;;;;27.50;50.32;101627.53;1634085;86;21091;-48
2021/08/24 05:25:13;;;;;;;17.98;9.68;;;;;;;27.52;50.04;101630.94;1638372;86;21626;-49
2021/08/24 05:27:40;;;;;;;22.52;11.03;;;;;;;27.55;50.43;101632.05;1623163;85;21046;-47
2021/08/24 05:30:11;;;;;;;252.55;129.80;;;;;;;27.57;50.35;101631.44;1641672;86;21046;-48
2021/08/24 05:32:38;;;;;;;42.95;23.65;;;;;;;27.60;50.17;101631.17;1653457;86;21053;-49
2021/08/24 05:35:07;;;;;;;27.80;15.58;;;;;;;27.63;50.44;101635.82;1652873;85;21101;-46
2021/08/24 05:37:34;;;;;;;26.48;15.18;;;;;;;27.68;50.34;101642.11;1661756;82;21046;-48
2021/08/24 05:40:01;;;;;;;82.05;47.67;;;;;;;27.73;50.23;101635.93;1734014;82;21126;-50
2021/08/24 05:42:27;;;;;;;13.13;8.95;;;;;;;27.77;49.92;101636.05;1726021;82;21483;-49
2021/08/24 05:44:56;;;;;;;16.95;7.12;;;;;;;27.68;50.48;101637.63;1723205;82;21021;-47
2021/08/24 05:47:23;;;;;;;8.80;5.85;;;;;;;27.85;50.31;101636.28;1731394;82;21018;-49
2021/08/24 05:49:50;;;;;;;15.93;5.83;;;;;;;27.90;50.16;101632.77;1714943;81;21011;-49
2021/08/24 05:52:16;;;;;;;14.58;5.92;;;;;;;27.94;50.16;101632.88;1713605;82;21051;-49
2021/08/24 05:54:43;;;;;;;8.48;4.53;;;;;;;27.93;50.08;101633.36;1672789;84;21596;-51
2021/08/24 05:57:10;;;;;;;21.70;6.10;;;;;;;28.01;50.04;101640.31;1718588;82;21011;-47
2021/08/24 05:59:37;;;;;;;10.48;4.85;;;;;;;28.05;50.23;101638.23;1724177;82;21054;-48
2021/08/24 06:02:04;;;;;;;13.95;6.37;;;;;;;28.09;49.63;101642.36;1722382;82;21120;-49
2021/08/24 06:04:31;;;;;;;48.42;37.70;;;;;;;28.13;49.64;101643.84;1734902;82;21055;-53
2021/08/24 06:06:57;;;;;;;10.72;9.45;;;;;;;28.21;49.69;101644.07;1717872;82;21060;-51
2021/08/24 06:09:24;;;;;;;14.50;6.78;;;;;;;28.31;49.65;101648.17;1723906;82;21030;-48
2021/08/24 06:11:52;;;;;;;8.45;5.10;;;;;;;28.41;49.44;101645.95;1713040;82;21026;-48
2021/08/24 06:14:20;;;;;;;16.67;5.08;;;;;;;28.52;49.34;101650.44;1718460;82;21037;-50
2021/08/24 06:16:54;;;;;;;27.73;6.53;;;;;;;28.61;49.10;101643.84;1723271;81;21557;-51
2021/08/24 06:19:16;;;;;;;9.13;5.12;;;;;;;28.72;48.78;101650.52;1721636;82;21089;-51
2021/08/24 06:21:43;;;;;;;10.65;6.60;;;;;;;28.85;48.39;101648.48;1725883;82;20991;-48
2021/08/24 06:24:11;;;;;;;16.42;7.33;;;;;;;28.96;47.94;101643.08;1720222;82;21066;-50
2021/08/24 06:26:37;;;;;;;14.03;8.48;;;;;;;29.05;47.42;101640.59;1729357;82;21031;-49
2021/08/24 06:29:04;;;;;;;7.85;5.20;;;;;;;29.11;47.18;101644.09;1720908;81;21076;-51
2021/08/24 06:31:31;;;;;;;11.10;6.10;;;;;;;29.16;46.73;101645.94;1721920;82;21112;-52
2021/08/24 06:33:59;;;;;;;7.97;4.92;;;;;;;29.18;46.59;101642.64;1721128;82;21006;-50
2021/08/24 06:36:25;;;;;;;39.70;10.30;;;;;;;29.19;46.66;101644.31;1727743;82;21067;-47
2021/08/24 06:38:52;;;;;;;15.93;7.42;;;;;;;29.21;46.76;101643.70;1722106;81;21042;-49
2021/08/24 06:41:20;;;;;;;19.77;11.70;;;;;;;29.24;46.56;101640.28;1715299;82;21010;-52
2021/08/24 06:43:47;;;;;;;11.75;8.58;;;;;;;29.32;46.19;101646.31;1725195;82;21050;-50
2021/08/24 06:46:14;;;;;;;17.48;11.18;;;;;;;29.38;45.71;101643.11;1726554;82;21542;-50
2021/08/24 06:48:41;;;;;;;14.43;9.35;;;;;;;29.42;45.56;101647.22;1710087;82;21487;-47
2021/08/24 06:51:09;;;;;;;10.08;7.17;;;;;;;29.45;45.01;101657.70;1714901;82;21070;-49
2021/08/24 06:53:37;;;;;;;15.32;5.80;;;;;;;29.48;44.93;101655.59;1720836;82;21033;-49
2021/08/24 06:56:05;;;;;;;7.10;5.20;;;;;;;29.53;44.82;101652.52;1720295;82;21058;-48
2021/08/24 06:58:32;;;;;;;15.45;8.00;;;;;;;29.54;44.40;101659.56;1727127;82;21515;-49
2021/08/24 07:00:59;;;;;;;18.37;9.45;;;;;;;29.54;44.08;101656.87;1723258;82;21094;-50
2021/08/24 07:03:25;;;;;;;12.82;9.10;;;;;;;29.56;44.04;101658.45;1720164;82;21026;-49
2021/08/24 07:05:52;;;;;;;8.53;5.55;;;;;;;29.57;44.14;101664.67;1719121;82;21022;-48
2021/08/24 07:08:19;;;;;;;77.95;11.48;;;;;;;29.57;43.76;101662.81;1720003;83;21031;-49
2021/08/24 07:10:47;;;;;;;12.70;7.25;;;;;;;29.56;43.56;101674.55;1735064;82;21035;-49
2021/08/24 07:13:16;;;;;;;8.60;4.55;;;;;;;29.57;43.41;101675.40;1725747;82;21070;-49
2021/08/24 07:15:43;;;;;;;5.22;3.77;;;;;;;29.58;43.12;101675.25;1727396;82;21050;-48
2021/08/24 07:18:11;;;;;;;7.40;4.10;;;;;;;29.60;42.99;101671.09;1720918;82;21125;-48
2021/08/24 07:20:38;;;;;;;7.50;4.65;;;;;;;29.61;42.83;101672.81;1734149;81;21054;-47
2021/08/24 07:23:04;;;;;;;5.67;3.77;;;;;;;29.64;42.60;101676.55;1719603;82;21081;-51
2021/08/24 07:25:36;;;;;;;16.57;5.17;;;;;;;29.65;42.41;101676.92;1724159;82;21396;-46
2021/08/24 07:28:00;;;;;;;11.43;5.45;;;;;;;29.66;42.46;101679.95;1714064;82;21014;-49
2021/08/24 07:30:27;;;;;;;12.60;4.40;;;;;;;29.69;42.68;101686.40;1721542;82;21062;-46
2021/08/24 07:32:54;;;;;;;4.42;3.30;;;;;;;29.71;43.12;101676.38;1729519;82;21690;-47
2021/08/24 07:35:21;;;;;;;6.50;3.47;;;;;;;29.74;42.87;101677.47;1725188;82;21022;-50
2021/08/24 07:37:48;;;;;;;47.30;7.40;;;;;;;29.76;42.55;101672.82;1723812;82;20974;-49
2021/08/24 07:40:15;;;;;;;10.32;4.28;;;;;;;29.78;42.45;101684.27;1727646;83;20998;-51
2021/08/24 07:42:44;;;;;;;19.90;4.12;;;;;;;29.80;42.74;101676.94;1724693;82;21119;-48
2021/08/24 07:45:11;;;;;;;11.55;4.50;;;;;;;29.81;42.87;101673.77;1720423;82;21035;-47
2021/08/24 07:47:38;;;;;;;10.05;3.58;;;;;;;29.82;42.86;101674.96;1721243;82;21062;-50
2021/08/24 07:50:06;;;;;;;23.32;4.92;;;;;;;29.82;42.95;101673.63;1721635;82;21046;-49
2021/08/24 07:52:33;;;;;;;6.80;3.87;;;;;;;29.86;43.46;101670.20;1723034;82;21534;-47
2021/08/24 07:55:00;;;;;;;6.90;3.37;;;;;;;29.86;43.71;101673.73;1721828;83;20995;-48
2021/08/24 07:57:27;;;;;;;6.37;3.67;;;;;;;29.87;44.00;101675.91;1676659;83;21531;-50
2021/08/24 07:59:54;;;;;;;6.03;3.85;;;;;;;29.89;44.19;101673.45;1682017;83;21468;-48
2021/08/24 08:02:20;;;;;;;5.62;3.67;;;;;;;29.90;43.89;101674.31;1668109;84;21033;-47
2021/08/24 08:04:47;;;;;;;11.57;4.03;;;;;;;29.90;44.18;101675.17;1668907;85;21252;-47
2021/08/24 08:07:14;;;;;;;6.42;3.92;;;;;;;29.91;43.85;101679.53;1674173;85;21056;-50
2021/08/24 08:09:41;;;;;;;5.28;3.52;;;;;;;29.91;43.61;101674.17;1666379;85;21127;-46
2021/08/24 08:12:08;;;;;;;6.33;3.30;;;;;;;29.92;43.95;101679.91;1674277;85;21060;-50
2021/08/24 08:14:36;;;;;;;7.85;4.20;;;;;;;29.94;44.17;101677.94;1668997;85;21088;-48
2021/08/24 08:17:03;;;;;;;5.80;5.00;;;;;;;29.95;43.96;101678.27;1673410;85;21072;-49
2021/08/24 08:19:30;;;;;;;6.25;3.80;;;;;;;29.97;43.92;101670.08;1675184;85;21012;-47
2021/08/24 08:21:57;;;;;;;6.72;3.70;;;;;;;29.99;43.67;101675.67;1670951;84;21533;-48
2021/08/24 08:24:24;;;;;;;4.35;3.77;;;;;;;30.00;43.27;101673.36;1676315;84;21044;-48
2021/08/24 08:26:51;;;;;;;4.00;3.60;;;;;;;30.01;43.53;101675.05;1671788;85;21024;-51
2021/08/24 08:29:17;;;;;;;7.87;3.58;;;;;;;30.03;43.04;101675.76;1668675;85;21060;-49
2021/08/24 08:31:46;;;;;;;6.78;4.12;;;;;;;30.03;43.21;101668.19;1662628;84;21003;-50
2021/08/24 08:34:13;;;;;;;4.30;3.60;;;;;;;30.03;42.51;101675.76;1670599;84;21066;-50
2021/08/24 08:36:40;;;;;;;6.58;3.75;;;;;;;30.05;42.00;101679.16;1668868;85;21493;-45
2021/08/24 08:39:07;;;;;;;5.72;3.90;;;;;;;30.04;42.13;101670.77;1673272;85;21047;-48
2021/08/24 08:41:51;;;;;;;4.55;4.08;;;;;;;30.05;42.13;101675.61;1674224;85;21565;-46
2021/08/24 08:44:26;;;;;;;8.48;4.60;;;;;;;30.07;42.12;101675.02;1667062;85;21009;-48
2021/08/24 08:47:10;;;;;;;11.15;5.10;;;;;;;30.10;42.31;101678.75;1665157;85;21520;-45
2021/08/24 08:50:14;;;;;;;5.65;3.58;;;;;;;30.14;42.49;101672.98;1650058;86;21063;-49
2021/08/24 08:53:08;;;;;;;4.70;3.83;;;;;;;30.17;42.26;101670.00;1656874;85;21021;-50
2021/08/24 08:55:58;;;;;;;6.15;3.25;;;;;;;30.20;42.45;101672.43;1663561;85;21518;-49
2021/08/24 08:58:45;;;;;;;5.95;3.83;;;;;;;30.22;41.94;101672.28;1653392;84;21058;-49
2021/08/24 09:01:26;;;;;;;7.12;3.67;;;;;;;30.19;41.99;101669.38;1661025;85;21105;-47
2021/08/24 09:04:20;;;;;;;4.85;3.67;;;;;;;30.16;42.13;101677.72;1663496;84;21194;-49
2021/08/24 09:06:49;;;;;;;6.30;4.00;;;;;;;30.18;41.91;101671.72;1635430;87;21110;-49
2021/08/24 09:09:17;;;;;;;5.65;3.77;;;;;;;30.18;41.96;101677.09;1586028;90;21080;-49
2021/08/24 09:11:47;;;;;;;5.20;3.70;;;;;;;30.19;42.09;101674.74;1599384;89;21090;-50
2021/08/24 09:14:28;;;;;;;6.83;4.13;;;;;;;30.21;42.15;101667.40;1541222;91;21190;-49
2021/08/24 09:17:03;;;;;;;3.90;3.17;;;;;;;30.23;42.22;101666.77;1588231;89;21597;-49
2021/08/24 09:19:44;;;;;;;4.00;3.60;;;;;;;30.25;42.44;101670.16;1547472;92;21140;-51
2021/08/24 09:22:14;;;;;;;5.03;3.70;;;;;;;30.27;42.67;101667.37;1502507;94;21070;-51
2021/08/24 09:24:43;;;;;;;5.00;3.83;;;;;;;30.28;42.53;101669.05;1500491;94;21083;-48
2021/08/24 09:27:36;;;;;;;8.48;3.77;;;;;;;30.27;42.00;101669.56;1498268;94;21137;-46
2021/08/24 09:30:04;;;;;;;6.35;3.87;;;;;;;30.27;41.96;101668.22;1514342;94;21183;-49
2021/08/24 09:32:31;;;;;;;4.28;3.42;;;;;;;30.27;42.12;101668.22;1506503;93;21083;-48
2021/08/24 09:35:27;;;;;;;4.87;4.05;;;;;;;30.24;42.13;101664.45;1518946;93;21080;-48
2021/08/24 09:37:54;;;;;;;4.17;3.50;;;;;;;30.22;42.38;101662.41;1503168;93;21057;-48
2021/08/24 09:40:38;;;;;;;8.13;4.10;;;;;;;30.21;42.62;101664.72;1521562;93;21089;-46
2021/08/24 09:43:34;;;;;;;8.03;4.60;;;;;;;30.22;42.44;101667.77;1521489;92;21596;-49
2021/08/24 09:46:12;;;;;;;7.75;5.03;;;;;;;30.23;42.10;101661.40;1515982;93;21074;-49
2021/08/24 09:49:05;;;;;;;6.75;6.00;;;;;;;30.24;42.20;101663.11;1509616;93;21106;-46
2021/08/24 09:51:39;;;;;;;5.20;4.70;;;;;;;30.24;42.44;101663.11;1439514;98;21117;-47
2021/08/24 09:54:17;;;;;;;7.30;5.47;;;;;;;30.25;42.53;101656.73;1430249;99;21099;-47
2021/08/24 09:56:50;;;;;;;17.92;5.90;;;;;;;30.30;42.20;101654.53;1369691;103;21181;-50
2021/08/24 09:59:31;;;;;;;8.43;4.05;;;;;;;30.25;42.39;101654.05;1369543;103;21202;-50
2021/08/24 10:01:59;;;;;;;4.90;3.80;;;;;;;30.30;42.50;101658.56;1317116;106;21290;-49
2021/08/24 10:04:26;;;;;;;4.83;3.75;;;;;;;30.30;42.58;101655.88;1331948;105;21165;-49
2021/08/24 10:07:06;;;;;;;4.33;3.92;;;;;;;30.27;42.60;101657.97;1372936;102;21691;-48
2021/08/24 10:09:36;;;;;;;6.75;4.15;;;;;;;30.25;42.51;101658.60;1375111;102;21727;-49
2021/08/24 10:12:23;;;;;;;6.53;3.58;;;;;;;30.26;42.75;101662.48;1337055;106;21171;-48
2021/08/24 10:14:52;;;;;;;6.55;3.85;;;;;;;30.28;43.08;101661.84;1340580;106;21301;-48
2021/08/24 10:17:36;;;;;;;4.65;3.60;;;;;;;30.30;43.51;101659.05;1336916;106;21238;-46
2021/08/24 10:20:08;;;;;;;8.25;4.20;;;;;;;30.30;43.43;101657.22;1330848;106;21202;-48
2021/08/24 10:22:36;;;;;;;3.95;3.58;;;;;;;30.30;43.41;101657.22;1299069;108;21247;-49
2021/08/24 10:25:09;;;;;;;7.17;4.62;;;;;;;30.31;43.20;101653.56;1331283;105;21186;-46
2021/08/24 10:27:41;;;;;;;4.87;3.87;;;;;;;30.32;43.43;101653.91;1366778;104;21161;-50
2021/08/24 10:30:15;;;;;;;5.15;3.90;;;;;;;30.36;43.56;101651.30;1369794;102;21086;-50
2021/08/24 10:32:57;;;;;;;5.40;4.22;;;;;;;30.35;43.83;101648.27;1376894;103;21185;-48
2021/08/24 10:35:25;;;;;;;;;;;;;;;30.37;43.23;101652.16;1447089;99;21177;-49
2021/08/24 10:37:52;;;;;;;5.17;3.95;;;;;;;30.36;43.22;101647.27;1440050;99;20146;-51
2021/08/24 10:40:28;;;;;;;4.08;3.65;;;;;;;30.38;43.34;101654.69;1429746;98;21606;-50
2021/08/24 10:43:14;;;;;;;4.45;4.00;;;;;;;30.39;43.22;101648.34;1415970;100;21129;-46
2021/08/24 10:45:44;;;;;;;5.08;4.67;;;;;;;30.41;43.21;101649.05;1443859;98;21191;-47
2021/08/24 10:48:19;;;;;;;4.92;3.72;;;;;;;30.43;42.97;101651.11;1430832;98;21112;-46
2021/08/24 10:51:18;;;;;;;5.67;4.90;;;;;;;30.47;43.24;101643.13;1428307;99;21098;-46
2021/08/24 10:54:05;;;;;;;5.17;3.67;;;;;;;30.52;43.51;101638.16;1436296;100;21145;-49
2021/08/24 10:56:44;;;;;;;7.03;4.30;;;;;;;30.58;43.47;101641.29;1428862;99;21605;-50
2021/08/24 10:59:29;;;;;;;6.65;3.85;;;;;;;30.60;43.57;101639.31;1472399;96;21561;-49
2021/08/24 11:02:03;;;;;;;4.20;3.80;;;;;;;30.64;43.39;101633.52;1466028;96;21252;-52
2021/08/24 11:04:57;;;;;;;5.40;4.58;;;;;;;30.67;43.41;101636.39;1485670;92;21684;-52
2021/08/24 11:07:51;;;;;;;5.67;4.40;;;;;;;30.72;43.62;101635.48;1513489;92;21098;-46
2021/08/24 11:10:49;;;;;;;6.97;4.22;;;;;;;30.76;43.46;101638.25;1577201;90;21155;-48
2021/08/24 11:13:43;;;;;;;7.15;3.90;;;;;;;30.79;43.51;101631.26;1545756;91;21128;-49
2021/08/24 11:16:41;;;;;;;4.80;4.40;;;;;;;30.83;43.53;101623.27;1485357;95;21166;-47
2021/08/24 11:19:45;;;;;;;5.65;4.47;;;;;;;30.85;43.54;101628.03;1478569;95;21153;-49
2021/08/24 11:22:39;;;;;;;4.90;4.00;;;;;;;30.87;42.55;101615.30;1470694;95;21214;-49
2021/08/24 11:25:29;;;;;;;5.42;4.03;;;;;;;30.82;42.46;101622.89;1490163;92;22559;-51
2021/08/24 11:28:14;;;;;;;5.92;3.77;;;;;;;30.79;41.99;101617.83;1548070;91;21046;-48
2021/08/24 11:30:54;;;;;;;7.53;4.22;;;;;;;30.74;42.07;101610.67;1544299;91;21076;-47
2021/08/24 11:33:32;;;;;;;4.30;3.90;;;;;;;30.66;42.42;101620.80;1488867;95;21229;-47
2021/08/24 11:36:10;;;;;;;5.25;3.90;;;;;;;30.63;42.92;101614.83;1495939;94;21125;-48
2021/08/24 11:38:45;;;;;;;5.25;4.42;;;;;;;30.65;43.27;101619.57;1509450;93;21163;-47
2021/08/24 11:41:20;;;;;;;9.78;4.22;;;;;;;30.64;42.54;101616.55;1473727;95;21157;-49
2021/08/24 11:43:53;;;;;;;6.70;4.20;;;;;;;30.63;42.57;101617.52;1509342;93;21657;-48
2021/08/24 11:46:27;;;;;;;8.18;3.85;;;;;;;30.61;42.82;101614.13;1510651;93;21563;-51
2021/08/24 11:49:12;;;;;;;5.20;3.98;;;;;;;30.59;43.38;101608.05;1474306;96;21143;-49